Time;durP1;ratioP1;P1;durP2;ratioP2;P2;SDS_P1;SDS_P2;PMS_P1;PMS_P2;Temp;Humidity;BMP_temperature;BMP_pressure;BME280_temperature;BME280_humidity;BME280_pressure;Samples;Min_cycle;Max_cycle;Signal;HPM_P1;HPM_P2
2022/07/02 00:01:20;;;;;;;3.13;2.83;;;11.20;99.90;;;;;;5038602;28;20040;-88
2022/07/02 00:04:06;;;;;;;2.72;2.53;;;11.30;99.90;;;;;;5054891;28;20070;-88
2022/07/02 00:06:37;;;;;;;3.53;2.45;;;11.20;99.90;;;;;;5037912;28;20090;-87
2022/07/02 00:09:03;;;;;;;5.63;2.80;;;11.20;99.90;;;;;;5038172;28;20037;-88
2022/07/02 00:11:31;;;;;;;5.32;2.70;;;11.20;99.90;;;;;;5051467;28;20025;-88
2022/07/02 00:13:57;;;;;;;3.30;3.00;;;11.10;99.90;;;;;;5051589;28;20029;-89
2022/07/02 00:16:23;;;;;;;3.67;3.13;;;11.20;99.90;;;;;;5021870;28;20139;-89
2022/07/02 00:18:50;;;;;;;4.68;2.80;;;11.20;99.90;;;;;;5038331;28;20071;-87
2022/07/02 00:21:16;;;;;;;4.50;3.20;;;11.20;99.90;;;;;;5054403;28;20048;-89
2022/07/02 00:23:43;;;;;;;3.58;3.28;;;11.20;99.90;;;;;;5037911;28;20025;-88
2022/07/02 00:26:16;;;;;;;3.50;3.20;;;11.10;99.90;;;;;;5054651;28;20376;-87
2022/07/02 00:28:45;;;;;;;6.70;3.20;;;11.10;99.90;;;;;;5038658;28;20044;-87
2022/07/02 00:31:11;;;;;;;4.72;3.70;;;11.00;99.90;;;;;;5054197;28;20029;-87
2022/07/02 00:33:39;;;;;;;5.25;3.90;;;11.00;99.90;;;;;;5037795;28;20171;-88
2022/07/02 00:36:06;;;;;;;5.13;3.45;;;11.00;99.90;;;;;;5038207;28;20033;-87
2022/07/02 00:38:34;;;;;;;3.95;3.25;;;11.10;99.90;;;;;;5054204;28;20028;-87
2022/07/02 00:41:02;;;;;;;4.22;3.28;;;11.10;99.90;;;;;;5034468;28;20111;-87
2022/07/02 00:43:28;;;;;;;5.85;3.50;;;11.10;99.90;;;;;;5051127;28;20124;-88
2022/07/02 00:45:56;;;;;;;3.08;2.78;;;11.10;99.90;;;;;;5018058;28;20120;-88
2022/07/02 00:48:23;;;;;;;3.17;2.90;;;11.10;99.90;;;;;;5034209;28;20040;-87
2022/07/02 00:51:22;;;;;;;5.07;3.00;;;11.20;99.90;;;;;;5034329;28;20045;-87
2022/07/02 00:53:59;;;;;;;2.80;2.60;;;11.20;99.90;;;;;;5050551;28;20037;-86
2022/07/02 00:56:28;;;;;;;3.75;3.28;;;11.20;99.90;;;;;;5050919;28;20518;-89
2022/07/02 00:58:53;;;;;;;4.95;3.10;;;11.20;99.90;;;;;;5034428;28;20402;-87
2022/07/02 01:01:19;;;;;;;3.45;3.10;;;11.10;99.90;;;;;;5017607;28;20041;-85
2022/07/02 01:03:47;;;;;;;5.45;3.33;;;11.10;99.90;;;;;;5033772;28;20090;-87
2022/07/02 01:06:15;;;;;;;4.05;3.65;;;11.10;99.90;;;;;;5034175;28;20124;-87
2022/07/02 01:11:31;;;;;;;5.55;3.47;;;11.20;99.90;;;;;;5023058;28;20125;-87
2022/07/02 01:13:57;;;;;;;4.13;3.20;;;11.20;99.90;;;;;;5034436;28;20506;-87
2022/07/02 01:16:24;;;;;;;3.80;2.70;;;11.10;99.90;;;;;;5033898;28;20028;-88
2022/07/02 01:18:51;;;;;;;3.40;3.08;;;11.10;99.90;;;;;;5017418;28;20033;-87
2022/07/02 01:21:17;;;;;;;8.10;3.42;;;11.10;99.90;;;;;;5017711;28;20076;-87
2022/07/02 01:23:43;;;;;;;6.05;2.92;;;11.10;99.90;;;;;;5001486;28;20090;-87
2022/07/02 01:26:08;;;;;;;4.32;3.28;;;11.00;99.90;;;;;;5017389;28;20080;-87
2022/07/02 01:28:34;;;;;;;5.32;3.08;;;11.00;99.90;;;;;;5006847;28;20032;-87
2022/07/02 01:31:00;;;;;;;6.97;3.38;;;10.90;99.90;;;;;;5053594;28;20064;-89
2022/07/02 01:33:26;;;;;;;3.58;3.28;;;10.90;99.90;;;;;;5070733;28;20075;-86
2022/07/02 01:35:52;;;;;;;4.22;3.33;;;10.90;99.90;;;;;;5024581;28;20060;-88
2022/07/02 01:38:17;;;;;;;6.13;3.40;;;10.90;99.90;;;;;;5024371;28;20040;-87
2022/07/02 01:40:43;;;;;;;3.15;2.85;;;10.80;99.90;;;;;;5024661;28;20024;-87
2022/07/02 01:43:09;;;;;;;4.60;3.63;;;10.80;99.90;;;;;;5057243;28;20032;-86
2022/07/02 01:45:35;;;;;;;3.50;3.20;;;10.90;99.90;;;;;;5040676;28;20025;-87
2022/07/02 01:48:00;;;;;;;2.90;2.70;;;10.80;99.90;;;;;;5024393;28;20070;-87
2022/07/02 01:50:26;;;;;;;4.22;3.20;;;10.90;99.90;;;;;;5057738;28;20035;-87
2022/07/02 01:52:56;;;;;;;4.28;3.33;;;10.90;99.90;;;;;;5024272;28;20063;-87
2022/07/02 01:55:23;;;;;;;3.88;2.92;;;10.80;99.90;;;;;;5041002;28;20036;-87
2022/07/02 01:57:49;;;;;;;6.72;3.65;;;10.80;99.90;;;;;;5040443;28;20119;-87
2022/07/02 02:00:15;;;;;;;4.82;3.58;;;10.80;99.90;;;;;;5040877;28;20028;-87
2022/07/02 02:02:41;;;;;;;3.75;3.42;;;10.80;99.90;;;;;;5040641;28;20514;-87
2022/07/02 02:05:07;;;;;;;4.40;3.25;;;10.80;99.90;;;;;;5040232;28;20037;-86
2022/07/02 02:07:33;;;;;;;4.97;3.60;;;10.80;99.90;;;;;;5040213;28;20032;-86
2022/07/02 02:09:59;;;;;;;3.35;2.70;;;10.80;99.90;;;;;;5040292;28;20043;-88
2022/07/02 02:12:25;;;;;;;3.65;3.17;;;10.80;99.90;;;;;;5040503;28;20078;-87
2022/07/02 02:14:51;;;;;;;3.60;3.15;;;10.90;99.90;;;;;;5039724;28;20119;-88
2022/07/02 02:17:16;;;;;;;3.78;2.80;;;10.90;99.90;;;;;;5033960;28;20040;-88
2022/07/02 02:19:42;;;;;;;5.75;3.15;;;10.80;99.90;;;;;;5036795;28;20033;-87
2022/07/02 02:22:08;;;;;;;4.00;2.78;;;10.80;99.90;;;;;;5036169;28;20102;-87
2022/07/02 02:24:34;;;;;;;2.97;2.67;;;10.80;99.90;;;;;;5052981;28;20056;-88
2022/07/02 02:27:00;;;;;;;4.05;3.00;;;10.80;99.90;;;;;;5051340;28;20068;-87
2022/07/02 02:29:26;;;;;;;5.75;3.45;;;10.80;99.90;;;;;;5039456;28;20614;-87
2022/07/02 02:31:52;;;;;;;6.82;3.30;;;10.80;99.90;;;;;;5039658;28;20126;-87
2022/07/02 02:34:17;;;;;;;4.00;2.83;;;10.80;99.90;;;;;;5039459;28;20035;-87
2022/07/02 02:36:43;;;;;;;4.53;3.28;;;10.70;99.90;;;;;;5035830;28;20041;-87
2022/07/02 02:39:10;;;;;;;3.58;3.20;;;10.70;99.90;;;;;;5049467;28;20036;-88
2022/07/02 02:41:37;;;;;;;3.47;3.00;;;10.70;99.90;;;;;;5047635;28;20113;-88
2022/07/02 02:44:02;;;;;;;4.57;3.22;;;10.70;99.90;;;;;;5023102;28;20414;-86
2022/07/02 02:46:28;;;;;;;3.95;3.20;;;10.70;99.90;;;;;;5038645;28;20032;-87
2022/07/02 02:48:54;;;;;;;5.78;3.53;;;10.70;99.90;;;;;;5022398;28;20036;-87
2022/07/02 02:51:20;;;;;;;3.78;3.20;;;10.70;99.90;;;;;;5019095;28;20044;-87
2022/07/02 02:53:46;;;;;;;3.63;3.30;;;10.60;99.90;;;;;;5019476;28;20100;-87
2022/07/02 02:56:12;;;;;;;4.18;3.47;;;10.60;99.90;;;;;;5007727;28;20033;-88
2022/07/02 02:58:38;;;;;;;5.78;3.97;;;10.60;99.90;;;;;;5003058;28;20037;-88
2022/07/02 03:01:04;;;;;;;6.68;3.40;;;10.50;99.90;;;;;;5022761;28;20131;-88
2022/07/02 03:03:30;;;;;;;6.30;3.50;;;10.50;99.90;;;;;;5055554;28;20060;-88
2022/07/02 03:05:56;;;;;;;5.10;3.67;;;10.40;99.90;;;;;;5038376;28;20045;-87
2022/07/02 03:08:22;;;;;;;4.20;3.25;;;10.40;99.90;;;;;;5002670;28;20029;-86
2022/07/02 03:10:48;;;;;;;7.82;3.75;;;10.50;99.90;;;;;;5057370;28;20036;-87
2022/07/02 03:13:15;;;;;;;4.18;3.53;;;10.50;99.90;;;;;;5038940;28;20028;-88
2022/07/02 03:15:41;;;;;;;5.80;3.22;;;10.40;99.90;;;;;;5055354;28;20025;-88
2022/07/02 03:18:06;;;;;;;6.13;3.38;;;10.30;99.90;;;;;;5038283;28;20035;-87
2022/07/02 03:20:33;;;;;;;3.97;3.35;;;10.30;99.90;;;;;;5005799;28;20094;-87
2022/07/02 03:22:59;;;;;;;3.90;3.15;;;10.30;99.90;;;;;;5054696;28;20039;-86
2022/07/02 03:25:26;;;;;;;3.35;3.05;;;10.30;99.90;;;;;;5037927;28;20047;-88
2022/07/02 03:27:53;;;;;;;4.03;2.97;;;10.20;99.90;;;;;;5054953;28;20024;-88
2022/07/02 03:30:18;;;;;;;3.97;3.58;;;10.30;99.90;;;;;;5054744;28;20090;-88
2022/07/02 03:32:44;;;;;;;3.55;2.85;;;10.30;99.90;;;;;;5037891;28;20044;-87
2022/07/02 03:35:10;;;;;;;3.78;3.30;;;10.30;99.90;;;;;;5021428;28;20028;-87
2022/07/02 03:37:36;;;;;;;4.72;3.67;;;10.30;99.90;;;;;;5037867;28;20483;-87
2022/07/02 03:40:02;;;;;;;4.47;3.63;;;10.30;99.90;;;;;;5054373;28;20029;-88
2022/07/02 03:42:28;;;;;;;5.80;2.88;;;10.30;99.90;;;;;;5051226;28;20029;-88
2022/07/02 03:44:53;;;;;;;5.47;3.17;;;10.40;99.90;;;;;;5018131;28;20119;-87
2022/07/02 03:47:19;;;;;;;6.68;3.22;;;10.40;99.90;;;;;;5032789;28;20131;-87
2022/07/02 03:49:45;;;;;;;3.35;3.05;;;10.40;99.90;;;;;;5054466;28;20463;-87
2022/07/02 03:52:11;;;;;;;4.82;3.78;;;10.40;99.90;;;;;;5040786;28;20102;-88
2022/07/02 03:54:36;;;;;;;3.47;2.92;;;10.40;99.90;;;;;;5054200;28;20025;-87
2022/07/02 03:57:03;;;;;;;4.45;3.75;;;10.40;99.90;;;;;;5020836;28;20495;-87
2022/07/02 03:59:29;;;;;;;4.88;3.72;;;10.40;99.90;;;;;;5037834;28;20033;-87
2022/07/02 04:01:54;;;;;;;4.07;3.45;;;10.40;99.90;;;;;;5037522;28;20136;-87
2022/07/02 04:04:20;;;;;;;4.80;3.70;;;10.50;99.90;;;;;;5020953;28;20086;-88
2022/07/02 04:06:46;;;;;;;4.35;3.60;;;10.50;99.90;;;;;;5021193;28;20036;-88
2022/07/02 04:09:12;;;;;;;4.10;3.70;;;10.50;99.90;;;;;;5037714;28;20032;-87
2022/07/02 04:11:38;;;;;;;4.85;4.00;;;10.60;99.90;;;;;;5037659;28;20040;-88
2022/07/02 04:14:04;;;;;;;6.07;3.83;;;10.60;99.90;;;;;;5037952;28;20033;-88
2022/07/02 04:16:30;;;;;;;6.32;4.50;;;10.60;99.90;;;;;;5017889;28;20442;-87
2022/07/02 04:18:56;;;;;;;5.70;3.90;;;10.70;99.90;;;;;;5017711;28;20483;-87
2022/07/02 04:21:22;;;;;;;6.07;4.35;;;10.70;99.90;;;;;;5027830;28;20089;-87
2022/07/02 04:23:48;;;;;;;5.53;4.38;;;10.80;99.90;;;;;;5037218;28;20056;-88
2022/07/02 04:26:13;;;;;;;8.20;4.57;;;10.80;99.90;;;;;;5020688;28;20078;-89
2022/07/02 04:28:39;;;;;;;5.22;4.40;;;10.80;99.90;;;;;;5017338;28;20044;-88
2022/07/02 04:31:05;;;;;;;5.30;4.22;;;10.90;99.90;;;;;;5033947;28;20037;-89
2022/07/02 04:33:31;;;;;;;8.13;4.93;;;10.90;99.90;;;;;;5050688;28;20058;-89
2022/07/02 04:35:56;;;;;;;6.53;4.25;;;11.00;99.90;;;;;;5037310;28;20082;-88
2022/07/02 04:38:22;;;;;;;5.25;3.95;;;11.10;99.90;;;;;;5020801;28;20064;-87
2022/07/02 04:40:48;;;;;;;6.50;4.82;;;11.10;99.90;;;;;;5050455;28;20082;-89
2022/07/02 04:43:14;;;;;;;6.65;4.97;;;11.10;99.90;;;;;;5017086;28;20032;-88
2022/07/02 04:45:40;;;;;;;6.43;4.75;;;11.20;99.90;;;;;;5033242;28;20029;-88
2022/07/02 04:48:07;;;;;;;6.22;4.70;;;11.30;99.90;;;;;;5038080;28;20067;-89
2022/07/02 04:50:33;;;;;;;8.02;5.25;;;11.30;99.90;;;;;;5053068;28;20111;-87
2022/07/02 04:52:59;;;;;;;6.20;5.10;;;11.40;99.90;;;;;;5036804;28;20433;-89
2022/07/02 04:55:25;;;;;;;8.23;4.97;;;11.50;99.90;;;;;;5036756;28;20094;-87
2022/07/02 04:57:51;;;;;;;8.07;5.45;;;11.50;99.90;;;;;;5053681;28;20047;-88
2022/07/02 05:00:17;;;;;;;8.27;4.88;;;11.60;99.90;;;;;;5020129;28;20036;-89
2022/07/02 05:02:43;;;;;;;7.63;5.10;;;11.60;99.90;;;;;;5052690;28;20376;-88
2022/07/02 05:05:09;;;;;;;5.80;4.95;;;11.70;99.90;;;;;;5035799;28;20479;-88
2022/07/02 05:07:35;;;;;;;10.93;7.22;;;11.80;99.90;;;;;;5052174;28;20040;-88
2022/07/02 05:10:01;;;;;;;12.40;9.15;;;11.90;99.90;;;;;;5055205;28;20024;-88
2022/07/02 05:12:26;;;;;;;12.70;8.32;;;11.90;99.90;;;;;;5039617;28;20064;-89
2022/07/02 05:14:52;;;;;;;6.22;5.25;;;12.00;99.90;;;;;;5040910;28;20028;-87
2022/07/02 05:17:18;;;;;;;27.85;15.23;;;12.10;99.90;;;;;;5040156;28;20067;-88
2022/07/02 05:19:44;;;;;;;6.72;5.03;;;12.10;99.90;;;;;;5041128;28;20040;-88
2022/07/02 05:22:10;;;;;;;7.18;4.85;;;12.20;99.90;;;;;;5041009;28;20075;-88
2022/07/02 05:24:36;;;;;;;14.98;5.90;;;12.30;99.90;;;;;;5041116;28;20032;-88
2022/07/02 05:27:02;;;;;;;9.40;6.60;;;12.50;99.90;;;;;;5040777;28;20032;-89
2022/07/02 05:29:28;;;;;;;8.10;5.93;;;12.60;99.90;;;;;;5057243;28;20020;-87
2022/07/02 05:31:54;;;;;;;7.30;5.60;;;12.70;99.90;;;;;;5040321;28;20613;-89
2022/07/02 05:34:20;;;;;;;6.18;4.78;;;12.80;99.90;;;;;;5056577;28;20032;-88
2022/07/02 05:36:47;;;;;;;18.45;10.63;;;13.10;99.90;;;;;;5036561;28;20051;-88
2022/07/02 05:39:13;;;;;;;10.98;5.35;;;13.50;99.90;;;;;;5052818;28;20039;-88
2022/07/02 05:41:39;;;;;;;8.90;6.13;;;13.90;99.90;;;;;;5049022;28;20120;-90
2022/07/02 05:44:05;;;;;;;5.18;4.22;;;14.30;99.90;;;;;;5021930;28;20610;-88
2022/07/02 05:46:31;;;;;;;11.98;6.80;;;14.80;99.90;;;;;;5035838;28;20040;-88
2022/07/02 05:48:56;;;;;;;10.85;7.25;;;15.30;99.90;;;;;;5027884;28;20564;-88
2022/07/02 05:51:22;;;;;;;4.28;3.60;;;15.80;99.90;;;;;;5045133;28;20531;-88
2022/07/02 05:53:48;;;;;;;5.57;3.70;;;16.30;99.90;;;;;;5044490;28;20083;-88
2022/07/02 05:56:14;;;;;;;3.10;2.83;;;16.80;99.90;;;;;;5028824;28;20080;-89
2022/07/02 05:58:40;;;;;;;4.50;3.45;;;17.10;99.90;;;;;;5022229;28;20497;-87
2022/07/02 06:01:06;;;;;;;4.05;3.08;;;17.40;99.90;;;;;;5038282;28;20043;-88
2022/07/02 06:03:32;;;;;;;3.17;2.88;;;17.70;99.90;;;;;;5025561;28;20285;-88
2022/07/02 06:08:42;;;;;;;3.33;2.80;;;17.90;99.90;;;;;;5063478;28;20037;-86
2022/07/02 06:11:08;;;;;;;3.80;3.10;;;18.00;99.90;;;;;;5024727;28;20123;-88
2022/07/02 06:13:34;;;;;;;3.78;3.20;;;18.20;99.90;;;;;;5022321;28;20028;-88
2022/07/02 06:16:00;;;;;;;4.05;3.63;;;18.20;99.90;;;;;;5054772;28;20384;-89
2022/07/02 06:18:26;;;;;;;3.00;2.55;;;18.40;99.90;;;;;;5035392;28;20036;-88
2022/07/02 06:20:52;;;;;;;3.10;2.80;;;18.50;99.90;;;;;;5053584;28;20033;-89
2022/07/02 06:23:21;;;;;;;2.88;2.58;;;19.10;99.90;;;;;;5036380;28;20047;-88
2022/07/02 06:25:50;;;;;;;2.70;2.50;;;19.40;99.90;;;;;;5065613;28;20036;-88
2022/07/02 06:28:17;;;;;;;2.40;2.20;;;19.70;99.90;;;;;;5054250;28;20672;-88
2022/07/02 06:30:43;;;;;;;3.00;2.70;;;19.80;99.90;;;;;;5077388;28;20073;-88
2022/07/02 06:33:08;;;;;;;2.35;2.15;;;20.20;99.90;;;;;;5034565;28;20037;-88
2022/07/02 06:35:34;;;;;;;3.72;2.63;;;20.20;99.90;;;;;;5014424;28;20036;-88
2022/07/02 06:38:00;;;;;;;2.83;2.50;;;20.40;99.90;;;;;;5020522;28;20052;-88
2022/07/02 06:40:26;;;;;;;3.42;2.17;;;20.70;99.90;;;;;;5036839;28;20430;-89
2022/07/02 06:42:51;;;;;;;2.50;2.08;;;21.10;99.90;;;;;;5055783;28;20490;-89
2022/07/02 06:45:17;;;;;;;2.17;1.98;;;21.60;99.90;;;;;;5037385;28;20052;-88
2022/07/02 06:47:43;;;;;;;2.80;2.47;;;21.70;99.90;;;;;;5023547;28;20039;-89
2022/07/02 06:50:11;;;;;;;1.80;1.70;;;21.70;99.90;;;;;;5053370;28;20035;-89
2022/07/02 06:52:37;;;;;;;2.15;2.05;;;22.10;99.90;;;;;;5046495;28;20475;-89
2022/07/02 06:55:03;;;;;;;2.38;2.17;;;22.30;99.90;;;;;;5038329;28;20027;-90
2022/07/02 06:57:29;;;;;;;1.95;1.85;;;22.40;99.90;;;;;;5038132;28;20027;-92
2022/07/02 06:59:59;;;;;;;3.97;2.30;;;22.20;99.90;;;;;;5022454;28;20100;-91
2022/07/02 07:02:36;;;;;;;7.68;2.50;;;22.30;99.90;;;;;;5041991;28;20033;-91
2022/07/02 07:05:04;;;;;;;6.60;2.50;;;22.80;99.90;;;;;;5040202;28;20032;-90
2022/07/02 07:07:31;;;;;;;2.47;2.28;;;22.60;99.00;;;;;;5056256;28;20033;-90
2022/07/02 07:09:58;;;;;;;2.45;2.25;;;23.00;99.60;;;;;;5040156;28;20032;-91
2022/07/02 07:12:24;;;;;;;2.40;2.22;;;22.80;97.00;;;;;;5039842;28;20036;-90
2022/07/02 07:14:50;;;;;;;1.90;1.52;;;22.90;97.60;;;;;;5039413;28;20116;-90
2022/07/02 07:17:16;;;;;;;1.63;1.52;;;23.30;98.00;;;;;;5040067;28;20582;-87
2022/07/02 07:19:42;;;;;;;2.83;2.40;;;23.80;98.00;;;;;;5021129;28;20037;-88
2022/07/02 07:22:09;;;;;;;3.13;2.00;;;24.30;94.60;;;;;;5050087;28;20060;-88
2022/07/02 07:24:35;;;;;;;2.47;2.28;;;24.50;94.00;;;;;;5065456;28;20039;-88
2022/07/02 07:27:01;;;;;;;3.30;1.98;;;24.40;91.30;;;;;;5038514;28;20055;-88
2022/07/02 07:29:27;;;;;;;1.75;1.65;;;24.40;93.20;;;;;;5066896;28;20470;-88
2022/07/02 07:31:53;;;;;;;1.63;1.52;;;24.60;92.40;;;;;;5030501;28;20036;-88
2022/07/02 07:34:19;;;;;;;1.58;1.48;;;25.10;92.80;;;;;;5036693;28;20189;-90
2022/07/02 07:36:45;;;;;;;1.45;1.35;;;25.20;87.20;;;;;;5035945;28;20037;-89
2022/07/02 07:39:10;;;;;;;2.00;1.90;;;24.70;88.80;;;;;;5050140;28;20033;-88
2022/07/02 07:41:36;;;;;;;1.83;1.50;;;24.60;90.50;;;;;;5050369;28;20044;-88
2022/07/02 07:44:03;;;;;;;2.78;1.90;;;24.00;89.30;;;;;;5052407;28;20036;-87
2022/07/02 07:46:29;;;;;;;1.35;1.25;;;24.20;90.60;;;;;;5045977;28;20120;-89
2022/07/02 07:48:56;;;;;;;2.78;2.22;;;24.50;90.60;;;;;;5053547;28;20281;-90
2022/07/02 07:51:21;;;;;;;2.05;1.92;;;24.70;89.10;;;;;;5060142;28;20112;-89
2022/07/02 07:53:47;;;;;;;1.95;1.85;;;25.00;91.10;;;;;;5048657;28;20124;-88
2022/07/02 07:56:19;;;;;;;1.85;1.75;;;25.40;84.90;;;;;;5022954;28;20039;-88
2022/07/02 07:58:46;;;;;;;3.38;1.50;;;25.20;86.30;;;;;;5045546;28;20031;-86
2022/07/02 08:01:12;;;;;;;1.70;1.60;;;25.20;86.60;;;;;;5049891;28;20017;-88
2022/07/02 08:03:38;;;;;;;2.08;1.48;;;25.20;87.30;;;;;;5017788;28;20037;-89
2022/07/02 08:06:04;;;;;;;2.80;1.85;;;24.80;83.60;;;;;;5019107;28;20087;-91
2022/07/02 08:08:29;;;;;;;1.98;1.75;;;24.40;84.20;;;;;;5052809;28;20399;-88
2022/07/02 08:10:55;;;;;;;2.50;1.50;;;24.20;85.00;;;;;;5029343;28;20032;-88
2022/07/02 08:13:21;;;;;;;2.00;1.33;;;23.60;85.60;;;;;;5018484;28;20029;-89
2022/07/02 08:15:47;;;;;;;1.25;1.15;;;23.40;90.30;;;;;;5037011;28;20109;-87
2022/07/02 08:18:13;;;;;;;1.77;1.67;;;23.20;90.30;;;;;;5035554;28;20020;-89
2022/07/02 08:20:39;;;;;;;1.42;1.33;;;23.10;89.10;;;;;;5032551;28;20447;-88
2022/07/02 08:23:04;;;;;;;1.73;1.55;;;23.00;90.40;;;;;;5041866;28;20044;-89
2022/07/02 08:25:30;;;;;;;0.90;0.90;;;22.90;88.90;;;;;;5036731;28;20044;-88
2022/07/02 08:27:56;;;;;;;1.67;1.08;;;22.80;83.20;;;;;;5004597;28;20131;-90
2022/07/02 08:30:22;;;;;;;1.30;1.20;;;22.60;84.40;;;;;;5036929;28;20126;-88
2022/07/02 08:32:50;;;;;;;0.98;0.95;;;22.50;86.70;;;;;;5020274;28;20063;-89
2022/07/02 08:35:17;;;;;;;1.80;1.40;;;22.40;84.00;;;;;;5053502;28;20038;-90
2022/07/02 08:37:43;;;;;;;2.17;0.68;;;22.30;88.70;;;;;;5037307;28;20037;-89
2022/07/02 08:40:10;;;;;;;1.73;1.60;;;22.40;83.80;;;;;;5036288;28;20075;-88
2022/07/02 08:42:39;;;;;;;1.55;0.85;;;22.40;85.20;;;;;;5044471;28;20510;-89
2022/07/02 08:45:05;;;;;;;1.10;1.00;;;22.30;83.60;;;;;;5005110;28;20058;-90
2022/07/02 08:47:32;;;;;;;3.53;1.20;;;22.10;87.00;;;;;;5029221;28;20052;-89
2022/07/02 08:49:59;;;;;;;0.85;0.80;;;22.20;84.70;;;;;;5019756;28;20041;-90
2022/07/02 08:52:27;;;;;;;1.60;1.50;;;22.30;88.70;;;;;;5036161;28;20119;-89
2022/07/02 08:54:54;;;;;;;1.75;1.10;;;22.30;84.60;;;;;;5066176;28;20078;-90
2022/07/02 08:57:48;;;;;;;1.00;1.00;;;22.40;88.40;;;;;;5052704;28;20588;-88
2022/07/02 09:00:20;;;;;;;1.20;1.10;;;22.70;85.90;;;;;;5035988;28;20110;-88
2022/07/02 09:02:48;;;;;;;2.08;1.30;;;22.90;84.50;;;;;;5020368;28;20070;-90
2022/07/02 09:05:16;;;;;;;2.33;1.00;;;22.90;82.40;;;;;;5051193;28;20745;-88
2022/07/02 09:07:45;;;;;;;1.63;0.80;;;22.90;82.00;;;;;;5036244;28;20047;-89
2022/07/02 09:10:11;;;;;;;1.27;0.90;;;23.00;80.70;;;;;;5036400;28;20036;-88
2022/07/02 09:12:39;;;;;;;1.55;1.10;;;22.90;81.80;;;;;;5036152;28;20036;-89
2022/07/02 09:15:05;;;;;;;0.95;0.93;;;22.80;82.00;;;;;;5053124;28;20060;-89
2022/07/02 09:17:32;;;;;;;1.80;0.93;;;22.80;80.80;;;;;;5036506;28;20123;-89
2022/07/02 09:19:58;;;;;;;0.98;0.80;;;22.70;77.10;;;;;;5052656;28;20040;-88
2022/07/02 09:22:36;;;;;;;0.60;0.60;;;22.50;72.50;;;;;;5036294;28;20044;-87
2022/07/02 09:25:11;;;;;;;2.88;0.82;;;22.30;77.10;;;;;;5036811;28;20032;-90
2022/07/02 09:27:37;;;;;;;0.90;0.90;;;22.20;77.00;;;;;;5030757;28;20041;-89
2022/07/02 09:30:04;;;;;;;0.47;0.47;;;22.10;74.60;;;;;;5016277;28;20025;-88
2022/07/02 09:32:40;;;;;;;0.52;0.52;;;22.10;75.70;;;;;;5040103;28;20028;-89
2022/07/02 09:35:06;;;;;;;1.55;0.50;;;22.10;75.40;;;;;;5032971;28;20039;-90
2022/07/02 09:37:32;;;;;;;0.63;0.30;;;22.00;61.80;;;;;;5020193;28;20056;-89
2022/07/02 09:40:02;;;;;;;0.60;0.30;;;21.80;65.80;;;;;;5052991;28;20422;-89
2022/07/02 09:42:31;;;;;;;2.65;0.35;;;21.70;59.60;;;;;;5037139;28;20033;-90
2022/07/02 09:44:57;;;;;;;1.17;0.50;;;21.80;64.10;;;;;;5069881;28;20033;-90
2022/07/02 09:47:34;;;;;;;3.13;0.70;;;21.80;65.70;;;;;;5036981;28;20173;-87
2022/07/02 09:50:09;;;;;;;1.45;0.50;;;21.80;65.10;;;;;;5002748;28;20036;-88
2022/07/02 09:52:36;;;;;;;1.27;0.40;;;21.70;67.10;;;;;;5052863;28;20048;-89
2022/07/02 09:55:03;;;;;;;1.50;0.40;;;21.80;68.60;;;;;;5037091;28;20486;-88
2022/07/02 09:57:29;;;;;;;0.47;0.40;;;21.80;65.40;;;;;;5056030;28;20186;-90
2022/07/02 10:00:04;;;;;;;0.75;0.43;;;21.70;66.30;;;;;;5040092;28;20498;-90
2022/07/02 10:02:35;;;;;;;0.40;0.40;;;21.80;69.80;;;;;;5040207;28;20047;-90
2022/07/02 10:05:04;;;;;;;5.05;0.80;;;21.90;66.70;;;;;;5039966;28;20097;-88
2022/07/02 10:07:31;;;;;;;1.05;0.50;;;21.90;68.60;;;;;;5039633;28;20433;-90
2022/07/02 10:10:03;;;;;;;0.68;0.55;;;21.90;68.70;;;;;;5072226;28;20093;-87
2022/07/02 10:12:29;;;;;;;1.27;0.60;;;21.90;72.50;;;;;;5039913;28;20364;-89
2022/07/02 10:14:56;;;;;;;0.45;0.40;;;22.00;69.00;;;;;;5039179;28;20120;-88
2022/07/02 10:17:23;;;;;;;0.40;0.40;;;22.10;72.80;;;;;;5020698;28;20072;-89
2022/07/02 10:19:55;;;;;;;0.40;0.40;;;22.10;67.20;;;;;;5076919;28;20429;-89
2022/07/02 10:22:22;;;;;;;1.20;0.50;;;22.00;65.20;;;;;;5029129;28;20060;-86
2022/07/02 10:24:49;;;;;;;0.50;0.50;;;22.00;64.00;;;;;;5021198;28;20044;-87
2022/07/02 10:27:17;;;;;;;0.75;0.32;;;21.90;66.40;;;;;;5059276;28;20037;-87
2022/07/02 10:29:43;;;;;;;3.65;0.50;;;21.90;63.50;;;;;;5069321;28;20043;-87
2022/07/02 10:32:23;;;;;;;0.65;0.47;;;21.80;66.20;;;;;;5038960;28;20480;-89
2022/07/02 10:35:07;;;;;;;1.40;0.60;;;21.80;67.40;;;;;;5052535;28;20035;-89
2022/07/02 10:37:37;;;;;;;0.30;0.30;;;21.80;72.00;;;;;;5052736;28;20445;-88
2022/07/02 10:40:03;;;;;;;2.88;0.40;;;21.90;64.20;;;;;;5051651;28;20033;-88
2022/07/02 10:42:44;;;;;;;0.60;0.60;;;21.90;61.90;;;;;;5015943;28;20029;-87
2022/07/02 10:45:18;;;;;;;0.73;0.40;;;21.90;61.60;;;;;;5041991;28;20116;-91
2022/07/02 10:48:00;;;;;;;0.40;0.40;;;21.90;61.00;;;;;;5052226;28;20090;-87
2022/07/02 10:50:35;;;;;;;8.48;0.80;;;21.90;68.30;;;;;;5034141;28;20048;-88
2022/07/02 10:53:13;;;;;;;1.95;0.43;;;21.90;62.20;;;;;;5047601;28;20033;-85
2022/07/02 10:55:44;;;;;;;0.75;0.50;;;22.00;61.00;;;;;;5060852;28;20039;-86
2022/07/02 10:58:28;;;;;;;1.85;0.40;;;21.90;60.00;;;;;;5027955;28;20037;-84
2022/07/02 11:00:55;;;;;;;2.42;0.60;;;21.90;62.90;;;;;;5048795;28;20043;-84
2022/07/02 11:03:26;;;;;;;0.70;0.70;;;21.80;61.50;;;;;;5047451;28;20028;-87
2022/07/02 11:05:56;;;;;;;0.50;0.50;;;21.80;66.40;;;;;;5047609;28;20397;-89
2022/07/02 11:08:43;;;;;;;0.40;0.40;;;21.90;64.60;;;;;;5041678;28;20048;-86
2022/07/02 11:11:11;;;;;;;0.43;0.43;;;22.00;66.10;;;;;;5028497;28;20589;-89
2022/07/02 11:13:48;;;;;;;0.47;0.47;;;22.10;62.30;;;;;;5029599;28;20430;-88
2022/07/02 11:16:24;;;;;;;0.40;0.40;;;22.20;57.60;;;;;;5018813;28;20090;-87
2022/07/02 11:18:51;;;;;;;0.60;0.30;;;22.20;57.50;;;;;;5067443;28;20056;-87
2022/07/02 11:21:17;;;;;;;0.25;0.25;;;22.10;59.90;;;;;;5050609;28;20029;-87
2022/07/02 11:23:44;;;;;;;0.47;0.40;;;22.30;61.60;;;;;;5033191;28;20254;-89
2022/07/02 11:26:14;;;;;;;0.28;0.28;;;22.30;58.80;;;;;;5033945;28;20032;-89
2022/07/02 11:28:40;;;;;;;1.10;0.30;;;22.40;57.30;;;;;;5050814;28;20016;-87
2022/07/02 11:31:06;;;;;;;0.40;0.40;;;22.50;58.40;;;;;;5067647;28;20028;-89
2022/07/02 11:33:32;;;;;;;0.63;0.57;;;22.50;59.20;;;;;;5053804;28;20106;-87
2022/07/02 11:35:58;;;;;;;0.35;0.30;;;22.50;59.00;;;;;;5038581;28;20033;-87
2022/07/02 11:38:24;;;;;;;0.40;0.40;;;22.50;57.80;;;;;;5005272;28;20039;-88
2022/07/02 11:40:50;;;;;;;0.98;0.40;;;22.50;60.10;;;;;;5053793;28;20028;-89
2022/07/02 11:43:17;;;;;;;0.40;0.40;;;22.50;58.80;;;;;;5037101;28;20040;-88
2022/07/02 11:45:45;;;;;;;0.63;0.50;;;22.50;56.10;;;;;;5050611;28;20487;-88
2022/07/02 11:48:22;;;;;;;1.05;0.50;;;22.50;57.20;;;;;;5052647;28;20112;-87
2022/07/02 11:50:59;;;;;;;0.85;0.45;;;22.50;59.30;;;;;;5043229;28;20060;-87
2022/07/02 11:53:25;;;;;;;0.63;0.57;;;22.50;59.10;;;;;;5036431;28;20041;-86
2022/07/02 11:55:52;;;;;;;0.98;0.60;;;22.70;60.80;;;;;;5037022;28;20056;-87
2022/07/02 11:58:18;;;;;;;0.50;0.50;;;22.90;61.00;;;;;;5053036;28;20028;-86
2022/07/02 12:00:44;;;;;;;2.40;0.63;;;23.10;60.10;;;;;;5036305;28;20032;-86
2022/07/02 12:03:12;;;;;;;1.38;0.55;;;23.20;59.00;;;;;;5053017;28;20032;-87
2022/07/02 12:05:50;;;;;;;0.50;0.50;;;23.30;58.40;;;;;;5036906;28;20097;-88
2022/07/02 12:08:16;;;;;;;0.47;0.47;;;23.30;60.40;;;;;;5031828;28;20029;-87
2022/07/02 12:10:42;;;;;;;0.98;0.55;;;23.50;62.10;;;;;;5036262;28;20045;-86
2022/07/02 12:13:09;;;;;;;1.17;0.70;;;23.60;59.10;;;;;;5051996;28;20040;-88
2022/07/02 12:15:45;;;;;;;0.60;0.60;;;23.70;57.80;;;;;;5003622;28;20041;-87
2022/07/02 12:18:18;;;;;;;0.52;0.52;;;23.70;57.60;;;;;;5029409;28;20025;-87
2022/07/02 12:20:44;;;;;;;0.57;0.50;;;23.80;59.80;;;;;;5049260;28;20115;-87
2022/07/02 12:23:10;;;;;;;0.73;0.55;;;24.00;60.30;;;;;;5045266;28;20035;-86
2022/07/02 12:25:46;;;;;;;0.60;0.60;;;24.20;57.00;;;;;;5058858;28;20032;-85
2022/07/02 12:30:57;;;;;;;0.68;0.60;;;24.40;56.50;;;;;;5025341;28;20407;-86
2022/07/02 12:33:31;;;;;;;0.75;0.60;;;24.40;56.90;;;;;;5019989;28;20036;-86
2022/07/02 12:36:00;;;;;;;0.57;0.57;;;24.50;57.30;;;;;;5025681;28;20032;-87
2022/07/02 12:38:27;;;;;;;0.52;0.52;;;24.70;59.40;;;;;;5052787;28;20028;-88
2022/07/02 12:41:00;;;;;;;0.50;0.50;;;25.00;56.90;;;;;;5005505;28;20039;-88
2022/07/02 12:43:27;;;;;;;0.60;0.60;;;25.00;53.80;;;;;;5036443;28;20036;-86
2022/07/02 12:46:09;;;;;;;0.70;0.70;;;25.10;56.10;;;;;;5047980;28;20036;-87
2022/07/02 12:48:45;;;;;;;0.63;0.40;;;25.20;55.00;;;;;;5047910;28;20479;-88
2022/07/02 12:51:12;;;;;;;0.63;0.63;;;25.30;57.20;;;;;;5046596;28;20064;-89
2022/07/02 12:53:38;;;;;;;1.88;0.80;;;25.30;54.00;;;;;;5035499;28;20081;-85
2022/07/02 12:56:06;;;;;;;0.40;0.40;;;25.30;53.80;;;;;;5033797;28;20037;-85